createdAt,value
2023-05-15T00:00:13.512Z,0.00
2023-05-15T00:01:13.721Z,0.00
2023-05-15T00:02:14.877Z,0.00
2023-05-15T00:03:14.189Z,0.00
2023-05-15T00:04:14.257Z,0.00
2023-05-15T00:05:15.434Z,0.00
2023-05-15T00:06:13.573Z,0.00
2023-05-15T00:07:14.183Z,0.00
2023-05-15T00:08:14.027Z,0.00
2023-05-15T00:09:14.151Z,0.00
2023-05-15T00:10:14.326Z,0.00
2023-05-15T00:11:13.462Z,0.00
2023-05-15T00:12:13.643Z,0.00
2023-05-15T00:13:13.878Z,0.00
2023-05-15T00:14:14.030Z,0.00
2023-05-15T00:15:14.256Z,0.00
2023-05-15T00:16:14.424Z,0.00
2023-05-15T00:17:13.525Z,0.00
2023-05-15T00:18:13.894Z,0.00
2023-05-15T00:19:14.061Z,0.00
2023-05-15T00:20:14.095Z,0.00
2023-05-15T00:21:14.291Z,0.00
2023-05-15T00:22:13.400Z,0.00
2023-05-15T00:23:14.606Z,0.00
2023-05-15T00:24:13.745Z,0.00
2023-05-15T00:25:13.963Z,0.00
2023-05-15T00:26:14.177Z,0.00
2023-05-15T00:27:14.260Z,0.00
2023-05-15T00:28:13.361Z,0.00
2023-05-15T00:29:13.516Z,0.00
2023-05-15T00:30:13.842Z,0.00
2023-05-15T00:31:13.972Z,0.00
2023-05-15T00:32:14.102Z,0.00
2023-05-15T00:33:13.191Z,0.00
2023-05-15T00:34:13.360Z,0.00
2023-05-15T00:35:13.551Z,0.00
2023-05-15T00:36:14.666Z,0.00
2023-05-15T00:37:13.936Z,0.00
2023-05-15T00:38:13.077Z,0.00
2023-05-15T00:39:13.212Z,0.00
2023-05-15T00:40:13.396Z,0.00
2023-05-15T00:41:13.583Z,0.00
2023-05-15T00:42:13.727Z,0.00
2023-05-15T00:43:13.943Z,0.00
2023-05-15T00:44:13.043Z,0.00
2023-05-15T00:45:13.243Z,0.00
2023-05-15T00:46:13.388Z,0.00
2023-05-15T00:47:13.647Z,0.00
2023-05-15T00:48:13.734Z,0.00
2023-05-15T00:49:13.955Z,0.00
2023-05-15T00:50:13.072Z,0.00
2023-05-15T00:51:13.249Z,0.00
2023-05-15T00:52:14.395Z,0.00
2023-05-15T00:53:17.799Z,0.00
2023-05-15T00:54:14.825Z,0.00
2023-05-15T00:55:12.985Z,0.00
2023-05-15T00:56:13.144Z,0.00
2023-05-15T00:57:13.318Z,0.00
2023-05-15T00:58:13.495Z,0.00
2023-05-15T00:59:13.712Z,0.00
2023-05-15T01:00:15.964Z,0.00
2023-05-15T01:01:13.108Z,0.00
2023-05-15T01:02:13.210Z,0.00
2023-05-15T01:03:13.539Z,0.00
2023-05-15T01:04:14.559Z,0.00
2023-05-15T01:05:12.679Z,0.00
2023-05-15T01:06:12.934Z,0.00
2023-05-15T01:07:13.073Z,0.00
2023-05-15T01:08:13.271Z,0.00
2023-05-15T01:09:13.425Z,0.00
2023-05-15T01:10:13.565Z,0.00
2023-05-15T01:11:13.817Z,0.00
2023-05-15T01:12:12.913Z,0.00
2023-05-15T01:13:13.063Z,0.00
2023-05-15T01:14:13.280Z,0.00
2023-05-15T01:15:13.426Z,0.00
2023-05-15T01:16:13.523Z,0.00
2023-05-15T01:17:12.797Z,0.00
2023-05-15T01:18:13.029Z,0.00
2023-05-15T01:19:14.130Z,0.00
2023-05-15T01:20:13.298Z,0.00
2023-05-15T01:21:14.431Z,0.00
2023-05-15T01:22:12.580Z,0.00
2023-05-15T01:23:12.797Z,0.00
2023-05-15T01:24:12.941Z,0.00
2023-05-15T01:25:13.120Z,0.00
2023-05-15T01:26:13.288Z,0.00
2023-05-15T01:27:13.408Z,0.00
2023-05-15T01:28:12.632Z,0.00
2023-05-15T01:29:14.477Z,0.00
2023-05-15T01:30:13.959Z,0.00
2023-05-15T01:31:13.160Z,0.00
2023-05-15T01:32:13.436Z,0.00
2023-05-15T01:33:12.550Z,0.00
2023-05-15T01:34:12.694Z,0.00
2023-05-15T01:35:12.923Z,0.00
2023-05-15T01:36:13.067Z,0.00
2023-05-15T01:37:14.194Z,0.00
2023-05-15T01:38:12.398Z,0.00
2023-05-15T01:39:13.522Z,0.00
2023-05-15T01:40:12.713Z,0.00
2023-05-15T01:41:12.935Z,0.00
2023-05-15T01:42:13.334Z,0.00
2023-05-15T01:43:12.272Z,0.00
2023-05-15T01:44:12.581Z,0.00
2023-05-15T01:45:12.674Z,0.00
2023-05-15T01:46:14.985Z,0.00
2023-05-15T01:47:13.031Z,0.00
2023-05-15T01:48:12.164Z,0.00
2023-05-15T01:49:12.385Z,0.00
2023-05-15T01:50:12.693Z,0.00
2023-05-15T01:51:12.792Z,0.00
2023-05-15T01:52:13.061Z,0.00
2023-05-15T01:53:12.251Z,0.00
2023-05-15T01:54:12.353Z,0.00
2023-05-15T01:55:12.558Z,0.00
2023-05-15T01:56:12.730Z,0.00
2023-05-15T01:57:12.940Z,0.00
2023-05-15T01:58:12.146Z,0.00
2023-05-15T01:59:12.278Z,0.00
2023-05-15T02:00:12.444Z,0.00
2023-05-15T02:01:12.699Z,0.00
2023-05-15T02:02:13.029Z,0.00
2023-05-15T02:03:13.179Z,0.00
2023-05-15T02:04:12.335Z,0.00
2023-05-15T02:05:12.428Z,0.00
2023-05-15T02:06:13.675Z,0.00
2023-05-15T02:07:12.864Z,0.00
2023-05-15T02:08:12.045Z,0.00
2023-05-15T02:09:12.228Z,0.00
2023-05-15T02:10:12.511Z,0.00
2023-05-15T02:11:13.598Z,0.00
2023-05-15T02:12:11.853Z,0.00
2023-05-15T02:13:11.990Z,0.00
2023-05-15T02:14:12.188Z,0.00
2023-05-15T02:15:13.323Z,0.00
2023-05-15T02:16:13.062Z,0.00
2023-05-15T02:17:12.755Z,0.00
2023-05-15T02:18:12.939Z,0.00
2023-05-15T02:19:13.116Z,0.00
2023-05-15T02:20:12.311Z,0.00
2023-05-15T02:21:13.418Z,0.00
2023-05-15T02:22:12.709Z,0.00
2023-05-15T02:23:11.888Z,0.00
2023-05-15T02:24:11.999Z,0.00
2023-05-15T02:25:12.208Z,0.00
2023-05-15T02:26:12.395Z,0.00
2023-05-15T02:27:12.766Z,0.00
2023-05-15T02:28:14.907Z,0.00
2023-05-15T02:29:11.957Z,0.00
2023-05-15T02:30:13.118Z,0.00
2023-05-15T02:31:13.339Z,0.00
2023-05-15T02:32:12.503Z,0.00
2023-05-15T02:33:11.708Z,0.00
2023-05-15T02:34:12.990Z,0.00
2023-05-15T02:35:12.133Z,0.00
2023-05-15T02:36:12.321Z,0.00
2023-05-15T02:37:11.475Z,0.00
2023-05-15T02:38:11.672Z,0.00
2023-05-15T02:39:11.862Z,0.00
2023-05-15T02:40:12.132Z,0.00
2023-05-15T02:41:12.280Z,0.00
2023-05-15T02:42:12.484Z,0.00
2023-05-15T02:43:11.647Z,0.00
2023-05-15T02:44:11.912Z,0.00
2023-05-15T02:45:12.073Z,0.00
2023-05-15T02:46:12.391Z,0.00
2023-05-15T02:47:11.485Z,0.00
2023-05-15T02:48:11.655Z,0.00
2023-05-15T02:49:11.859Z,0.00
2023-05-15T02:50:12.140Z,0.00
2023-05-15T02:51:12.324Z,0.00
2023-05-15T02:52:11.462Z,0.00
2023-05-15T02:53:11.649Z,0.00
2023-05-15T02:54:11.879Z,0.00
2023-05-15T02:55:12.032Z,0.00
2023-05-15T02:56:12.169Z,0.00
2023-05-15T02:57:11.489Z,0.00
2023-05-15T02:58:12.693Z,0.00
2023-05-15T02:59:11.812Z,0.00
2023-05-15T03:00:12.038Z,0.00
2023-05-15T03:01:11.273Z,0.00
2023-05-15T03:02:12.375Z,0.00
2023-05-15T03:03:12.599Z,0.00
2023-05-15T03:04:11.952Z,0.00
2023-05-15T03:05:12.053Z,0.00
2023-05-15T03:06:12.211Z,0.00
2023-05-15T03:07:11.484Z,0.00
2023-05-15T03:08:11.689Z,0.00
2023-05-15T03:09:11.879Z,0.00
2023-05-15T03:10:11.089Z,0.00
2023-05-15T03:11:11.287Z,0.00
2023-05-15T03:12:11.490Z,0.00
2023-05-15T03:13:11.672Z,0.00
2023-05-15T03:14:11.856Z,0.00
2023-05-15T03:15:11.076Z,0.00
2023-05-15T03:16:11.458Z,0.00
2023-05-15T03:17:11.491Z,0.00
2023-05-15T03:18:11.667Z,0.00
2023-05-15T03:19:11.890Z,0.00
2023-05-15T03:20:10.954Z,0.00
2023-05-15T03:21:11.137Z,0.00
2023-05-15T03:22:11.751Z,0.00
2023-05-15T03:23:11.498Z,0.00
2023-05-15T03:24:11.736Z,0.00
2023-05-15T03:25:10.904Z,0.00
2023-05-15T03:26:11.057Z,0.00
2023-05-15T03:27:14.424Z,0.00
2023-05-15T03:28:11.478Z,0.00
2023-05-15T03:29:11.677Z,0.00
2023-05-15T03:30:11.827Z,0.00
2023-05-15T03:31:16.143Z,0.00
2023-05-15T03:32:11.242Z,0.00
2023-05-15T03:33:14.603Z,0.00
2023-05-15T03:34:11.600Z,0.00
2023-05-15T03:35:10.753Z,0.00
2023-05-15T03:36:11.892Z,0.00
2023-05-15T03:37:11.133Z,0.00
2023-05-15T03:38:11.320Z,0.00
2023-05-15T03:39:11.567Z,0.00
2023-05-15T03:40:11.670Z,0.00
2023-05-15T03:41:10.853Z,0.00
2023-05-15T03:42:11.068Z,0.00
2023-05-15T03:43:11.265Z,0.00
2023-05-15T03:44:11.507Z,0.00
2023-05-15T03:45:11.607Z,0.00
2023-05-15T03:46:11.180Z,0.00
2023-05-15T03:47:11.033Z,0.00
2023-05-15T03:48:12.222Z,0.00
2023-05-15T03:49:11.456Z,0.00
2023-05-15T03:50:10.580Z,0.00
2023-05-15T03:51:10.816Z,0.00
2023-05-15T03:52:10.992Z,0.00
2023-05-15T03:53:11.160Z,0.00
2023-05-15T03:54:11.318Z,0.00
2023-05-15T03:55:10.465Z,0.00
2023-05-15T03:56:10.779Z,0.00
2023-05-15T03:57:10.920Z,0.00
2023-05-15T03:58:12.041Z,0.00
2023-05-15T03:59:12.220Z,0.00
2023-05-15T04:00:10.505Z,0.00
2023-05-15T04:01:10.634Z,0.00
2023-05-15T04:02:10.887Z,0.00
2023-05-15T04:03:11.513Z,0.00
2023-05-15T04:04:15.335Z,0.00
2023-05-15T04:05:10.446Z,0.00
2023-05-15T04:06:11.513Z,0.00
2023-05-15T04:07:10.749Z,0.00
2023-05-15T04:08:11.012Z,0.00
2023-05-15T04:09:11.210Z,0.00
2023-05-15T04:10:10.314Z,0.00
2023-05-15T04:11:10.507Z,0.00
2023-05-15T04:12:10.728Z,0.00
2023-05-15T04:13:10.939Z,0.00
2023-05-15T04:14:11.113Z,0.00
2023-05-15T04:15:10.284Z,0.00
2023-05-15T04:16:10.532Z,0.00
2023-05-15T04:17:10.645Z,0.00
2023-05-15T04:18:11.814Z,0.00
2023-05-15T04:19:11.258Z,0.00
2023-05-15T04:20:10.209Z,0.00
2023-05-15T04:21:10.390Z,0.00
2023-05-15T04:22:10.550Z,0.00
2023-05-15T04:23:10.754Z,0.00
2023-05-15T04:24:10.978Z,0.00
2023-05-15T04:25:11.105Z,0.00
2023-05-15T04:26:10.292Z,0.00
2023-05-15T04:27:11.912Z,0.00
2023-05-15T04:28:10.724Z,0.00
2023-05-15T04:29:10.877Z,0.00
2023-05-15T04:30:10.021Z,0.00
2023-05-15T04:31:11.204Z,0.00
2023-05-15T04:32:10.594Z,0.00
2023-05-15T04:33:10.744Z,0.00
2023-05-15T04:34:10.845Z,0.00
2023-05-15T04:35:10.929Z,0.00
2023-05-15T04:36:10.035Z,0.00
2023-05-15T04:37:10.212Z,0.00
2023-05-15T04:38:11.379Z,0.00
2023-05-15T04:39:10.628Z,0.00
2023-05-15T04:40:10.802Z,0.00
2023-05-15T04:41:10.844Z,0.00
2023-05-15T04:42:10.052Z,0.00
2023-05-15T04:43:10.249Z,0.00
2023-05-15T04:44:11.434Z,0.00
2023-05-15T04:45:10.712Z,0.00
2023-05-15T04:46:10.013Z,0.00
2023-05-15T04:47:10.023Z,0.00
2023-05-15T04:48:10.262Z,0.00
2023-05-15T04:49:10.426Z,0.00
2023-05-15T04:50:10.568Z,0.00
2023-05-15T04:51:11.878Z,0.00
2023-05-15T04:52:09.898Z,0.00
2023-05-15T04:53:10.098Z,0.00
2023-05-15T04:54:10.215Z,0.00
2023-05-15T04:55:10.387Z,0.00
2023-05-15T04:56:10.513Z,0.00
2023-05-15T04:57:09.729Z,0.00
2023-05-15T04:58:10.788Z,0.00
2023-05-15T04:59:10.958Z,0.00
2023-05-15T05:00:11.130Z,0.00
2023-05-15T05:01:10.491Z,0.00
2023-05-15T05:02:14.693Z,0.00
2023-05-15T05:03:10.796Z,0.00
2023-05-15T05:04:10.072Z,0.00
2023-05-15T05:05:10.117Z,0.00
2023-05-15T05:06:10.331Z,0.00
2023-05-15T05:07:10.449Z,0.00
2023-05-15T05:08:09.610Z,0.00
2023-05-15T05:09:10.721Z,0.00
2023-05-15T05:10:09.932Z,0.00
2023-05-15T05:11:10.069Z,0.00
2023-05-15T05:12:11.214Z,0.00
2023-05-15T05:13:09.377Z,0.00
2023-05-15T05:14:09.617Z,0.00
2023-05-15T05:15:09.736Z,0.00
2023-05-15T05:16:09.942Z,0.00
2023-05-15T05:17:11.106Z,0.00
2023-05-15T05:18:10.414Z,0.00
2023-05-15T05:19:09.488Z,0.00
2023-05-15T05:20:12.450Z,0.00
2023-05-15T05:21:09.795Z,0.00
2023-05-15T05:22:09.957Z,0.00
2023-05-15T05:23:10.148Z,0.00
2023-05-15T05:24:09.322Z,0.00
2023-05-15T05:25:09.523Z,0.00
2023-05-15T05:26:09.699Z,0.00
2023-05-15T05:27:09.867Z,0.00
2023-05-15T05:28:10.078Z,0.00
2023-05-15T05:29:09.257Z,0.00
2023-05-15T05:30:11.598Z,0.00
2023-05-15T05:31:09.719Z,0.00
2023-05-15T05:32:10.568Z,0.00
2023-05-15T05:33:10.092Z,0.00
2023-05-15T05:34:10.149Z,0.00
2023-05-15T05:35:09.343Z,0.00
2023-05-15T05:36:09.470Z,0.00
2023-05-15T05:37:09.624Z,0.00
2023-05-15T05:38:10.203Z,0.00
2023-05-15T05:39:09.971Z,0.00
2023-05-15T05:40:10.101Z,0.00
2023-05-15T05:41:10.374Z,0.00
2023-05-15T05:42:09.521Z,0.00
2023-05-15T05:43:09.772Z,0.00
2023-05-15T05:44:10.429Z,0.00
2023-05-15T05:45:09.038Z,0.00
2023-05-15T05:46:09.250Z,0.00
2023-05-15T05:47:10.379Z,0.00
2023-05-15T05:48:09.695Z,0.00
2023-05-15T05:49:09.772Z,0.00
2023-05-15T05:50:08.979Z,0.00
2023-05-15T05:51:09.104Z,0.00
2023-05-15T05:52:09.272Z,0.00
2023-05-15T05:53:09.437Z,0.00
2023-05-15T05:54:10.613Z,0.00
2023-05-15T05:55:09.857Z,0.00
2023-05-15T05:56:08.988Z,0.00
2023-05-15T05:57:09.165Z,0.00
2023-05-15T05:58:18.284Z,0.00
2023-05-15T05:59:10.499Z,0.00
2023-05-15T06:00:09.713Z,0.00
2023-05-15T06:01:08.885Z,0.00
2023-05-15T06:02:09.103Z,0.00
2023-05-15T06:03:09.423Z,0.00
2023-05-15T06:04:10.547Z,0.00
2023-05-15T06:05:10.674Z,0.00
2023-05-15T06:06:09.759Z,0.00
2023-05-15T06:07:09.028Z,0.00
2023-05-15T06:08:09.169Z,0.00
2023-05-15T06:09:09.371Z,0.00
2023-05-15T06:10:09.671Z,0.00
2023-05-15T06:11:09.750Z,0.00
2023-05-15T06:12:08.933Z,0.00
2023-05-15T06:13:09.141Z,0.00
2023-05-15T06:14:10.192Z,0.00
2023-05-15T06:15:09.454Z,5.62
2023-05-15T06:16:08.605Z,5.62
2023-05-15T06:17:08.848Z,5.62
2023-05-15T06:18:09.031Z,5.62
2023-05-15T06:19:09.275Z,5.62
2023-05-15T06:20:09.290Z,5.62
2023-05-15T06:21:09.438Z,5.62
2023-05-15T06:22:11.743Z,5.62
2023-05-15T06:23:08.690Z,5.62
2023-05-15T06:24:08.862Z,5.62
2023-05-15T06:25:09.097Z,5.62
2023-05-15T06:26:09.216Z,5.62
2023-05-15T06:27:09.497Z,5.62
2023-05-15T06:28:08.549Z,5.62
2023-05-15T06:29:08.741Z,5.62
2023-05-15T06:30:09.846Z,5.62
2023-05-15T06:31:09.214Z,5.62
2023-05-15T06:32:09.277Z,5.62
2023-05-15T06:33:08.538Z,5.62
2023-05-15T06:34:08.631Z,5.62
2023-05-15T06:35:08.802Z,5.62
2023-05-15T06:36:09.031Z,5.62
2023-05-15T06:37:09.309Z,5.62
2023-05-15T06:38:08.389Z,5.62
2023-05-15T06:39:08.491Z,5.62
2023-05-15T06:40:08.733Z,5.62
2023-05-15T06:41:08.933Z,5.62
2023-05-15T06:42:09.175Z,5.62
2023-05-15T06:43:08.331Z,5.62
2023-05-15T06:44:08.502Z,5.62
2023-05-15T06:45:08.702Z,5.62
2023-05-15T06:46:09.951Z,5.62
2023-05-15T06:47:10.190Z,5.62
2023-05-15T06:48:08.386Z,5.62
2023-05-15T06:49:08.477Z,5.62
2023-05-15T06:50:08.691Z,5.62
2023-05-15T06:51:08.859Z,5.62
2023-05-15T06:52:09.068Z,5.62
2023-05-15T06:53:08.207Z,5.62
2023-05-15T06:54:08.457Z,5.62
2023-05-15T06:55:09.024Z,5.62
2023-05-15T06:56:08.732Z,5.62
2023-05-15T06:57:10.006Z,5.62
2023-05-15T06:58:09.150Z,5.62
2023-05-15T06:59:09.307Z,5.62
2023-05-15T07:00:08.428Z,5.62
2023-05-15T07:01:10.780Z,5.62
2023-05-15T07:02:08.914Z,5.62
2023-05-15T07:03:08.105Z,5.62
2023-05-15T07:04:09.129Z,5.62
2023-05-15T07:05:09.532Z,5.62
2023-05-15T07:06:08.547Z,5.62
2023-05-15T07:07:12.813Z,5.62
2023-05-15T07:08:07.881Z,5.62
2023-05-15T07:09:09.121Z,5.62
2023-05-15T07:10:08.238Z,5.62
2023-05-15T07:11:09.491Z,5.62
2023-05-15T07:12:09.622Z,5.62
2023-05-15T07:13:08.812Z,5.62
2023-05-15T07:14:08.905Z,5.62
2023-05-15T07:15:08.063Z,5.62
2023-05-15T07:16:08.223Z,5.62
2023-05-15T07:17:08.584Z,5.62
2023-05-15T07:18:08.711Z,5.62
2023-05-15T07:19:08.789Z,5.62
2023-05-15T07:20:08.885Z,5.62
2023-05-15T07:21:08.982Z,5.62
2023-05-15T07:22:09.179Z,5.62
2023-05-15T07:23:09.433Z,5.62
2023-05-15T07:24:08.603Z,5.62
2023-05-15T07:25:07.857Z,5.62
2023-05-15T07:26:11.909Z,5.62
2023-05-15T07:27:09.152Z,11.25
2023-05-15T07:28:08.261Z,11.25
2023-05-15T07:30:08.640Z,11.25
2023-05-15T07:31:07.854Z,11.25
2023-05-15T07:32:08.917Z,11.25
2023-05-15T07:33:09.041Z,11.25
2023-05-15T07:34:11.362Z,11.25
2023-05-15T07:35:09.397Z,11.25
2023-05-15T07:36:08.712Z,11.25
2023-05-15T07:37:07.713Z,11.25
2023-05-15T07:38:07.939Z,11.25
2023-05-15T07:39:08.030Z,5.62
2023-05-15T07:40:08.199Z,11.25
2023-05-15T07:41:09.559Z,11.25
2023-05-15T07:42:08.386Z,11.25
2023-05-15T07:43:08.587Z,11.25
2023-05-15T07:44:07.767Z,11.25
2023-05-15T07:45:07.929Z,11.25
2023-05-15T07:46:08.097Z,11.25
2023-05-15T07:47:08.362Z,11.25
2023-05-15T07:48:08.509Z,11.25
2023-05-15T07:49:08.897Z,11.25
2023-05-15T07:50:08.825Z,11.25
2023-05-15T07:51:08.028Z,11.25
2023-05-15T07:52:08.194Z,11.25
2023-05-15T07:53:08.458Z,11.25
2023-05-15T07:54:08.606Z,11.25
2023-05-15T07:55:07.749Z,11.25
2023-05-15T07:56:07.952Z,11.25
2023-05-15T07:57:08.145Z,11.25
2023-05-15T07:58:08.321Z,11.25
2023-05-15T07:59:08.693Z,11.25
2023-05-15T08:00:09.680Z,11.25
2023-05-15T08:01:08.928Z,11.25
2023-05-15T08:02:09.097Z,11.25
2023-05-15T08:03:09.365Z,11.25
2023-05-15T08:04:08.567Z,11.25
2023-05-15T08:05:08.830Z,11.25
2023-05-15T08:06:08.877Z,11.25
2023-05-15T08:07:08.082Z,11.25
2023-05-15T08:08:09.266Z,11.25
2023-05-15T08:09:09.532Z,11.25
2023-05-15T08:10:09.833Z,11.25
2023-05-15T08:11:11.955Z,11.25
2023-05-15T08:12:08.017Z,11.25
2023-05-15T08:13:09.251Z,11.25
2023-05-15T08:14:08.410Z,11.25
2023-05-15T08:15:08.630Z,11.25
2023-05-15T08:16:08.888Z,11.25
2023-05-15T08:17:07.953Z,11.25
2023-05-15T08:18:08.390Z,11.25
2023-05-15T08:19:10.527Z,11.25
2023-05-15T08:20:08.564Z,11.25
2023-05-15T08:21:07.759Z,11.25
2023-05-15T08:22:07.974Z,11.25
2023-05-15T08:23:08.153Z,11.25
2023-05-15T08:24:08.332Z,11.25
2023-05-15T08:25:08.540Z,11.25
2023-05-15T08:26:08.724Z,11.25
2023-05-15T08:27:09.052Z,11.25
2023-05-15T08:28:08.154Z,11.25
2023-05-15T08:29:08.287Z,11.25
2023-05-15T08:30:08.480Z,11.25
2023-05-15T08:31:08.770Z,11.25
2023-05-15T08:32:08.917Z,11.25
2023-05-15T08:33:08.166Z,11.25
2023-05-15T08:34:08.290Z,11.25
2023-05-15T08:35:08.521Z,11.25
2023-05-15T08:36:08.761Z,11.25
2023-05-15T08:37:09.948Z,11.25
2023-05-15T08:38:08.018Z,11.25
2023-05-15T08:39:08.304Z,16.88
2023-05-15T08:40:08.459Z,16.88
2023-05-15T08:41:08.640Z,16.88
2023-05-15T08:42:07.833Z,16.88
2023-05-15T08:43:08.062Z,16.88
2023-05-15T08:44:08.339Z,16.88
2023-05-15T08:45:08.510Z,16.88
2023-05-15T08:46:09.700Z,16.88
2023-05-15T08:47:08.125Z,16.88
2023-05-15T08:48:10.264Z,16.88
2023-05-15T08:49:08.420Z,11.25
2023-05-15T08:50:08.581Z,11.25
2023-05-15T08:51:07.705Z,11.25
2023-05-15T08:52:07.926Z,11.25
2023-05-15T08:53:08.146Z,11.25
2023-05-15T08:54:08.345Z,11.25
2023-05-15T08:55:08.519Z,11.25
2023-05-15T08:56:08.772Z,11.25
2023-05-15T08:57:08.907Z,11.25
2023-05-15T08:58:08.127Z,16.88
2023-05-15T08:59:08.341Z,16.88
2023-05-15T09:00:09.047Z,11.25
2023-05-15T09:01:08.751Z,11.25
2023-05-15T09:02:07.989Z,11.25
2023-05-15T09:03:09.159Z,11.25
2023-05-15T09:04:08.366Z,11.25
2023-05-15T09:05:08.512Z,11.25
2023-05-15T09:06:07.698Z,11.25
2023-05-15T09:07:08.019Z,11.25
2023-05-15T09:08:08.096Z,11.25
2023-05-15T09:09:08.362Z,16.88
2023-05-15T09:10:09.565Z,16.88
2023-05-15T09:11:08.736Z,16.88
2023-05-15T09:12:07.960Z,22.50
2023-05-15T09:13:08.262Z,22.50
2023-05-15T09:14:08.382Z,16.88
2023-05-15T09:15:08.590Z,16.88
2023-05-15T09:16:07.736Z,16.88
2023-05-15T09:17:09.079Z,16.88
2023-05-15T09:18:09.260Z,16.88
2023-05-15T09:19:09.418Z,16.88
2023-05-15T09:20:08.575Z,16.88
2023-05-15T09:21:07.735Z,16.88
2023-05-15T09:22:11.043Z,16.88
2023-05-15T09:23:08.216Z,16.88
2023-05-15T09:24:08.389Z,16.88
2023-05-15T09:25:08.582Z,16.88
2023-05-15T09:26:07.706Z,16.88
2023-05-15T09:27:07.956Z,16.88
2023-05-15T09:28:09.096Z,16.88
2023-05-15T09:29:09.333Z,16.88
2023-05-15T09:30:09.624Z,16.88
2023-05-15T09:31:07.737Z,16.88
2023-05-15T09:32:08.007Z,16.88
2023-05-15T09:33:08.176Z,16.88
2023-05-15T09:34:09.315Z,16.88
2023-05-15T09:35:08.537Z,16.88
2023-05-15T09:36:07.743Z,16.88
2023-05-15T09:37:08.958Z,16.88
2023-05-15T09:38:08.100Z,16.88
2023-05-15T09:39:08.393Z,16.88
2023-05-15T09:40:08.513Z,16.88
2023-05-15T09:41:09.016Z,16.88
2023-05-15T09:42:09.979Z,16.88
2023-05-15T09:43:09.077Z,16.88
2023-05-15T09:44:06.181Z,16.88
2023-05-15T09:45:08.465Z,16.88
2023-05-15T09:46:08.805Z,16.88
2023-05-15T09:47:08.311Z,16.88
2023-05-15T09:48:10.071Z,16.88
2023-05-15T09:49:08.253Z,16.88
2023-05-15T09:50:06.364Z,16.88
2023-05-15T09:51:06.583Z,22.50
2023-05-15T09:52:05.790Z,22.50
2023-05-15T09:53:07.327Z,22.50
2023-05-15T09:54:06.214Z,22.50
2023-05-15T09:55:06.323Z,22.50
2023-05-15T09:56:06.606Z,22.50
2023-05-15T09:57:05.754Z,22.50
2023-05-15T09:58:05.959Z,22.50
2023-05-15T09:59:06.432Z,16.88
2023-05-15T10:00:06.357Z,16.88
2023-05-15T10:01:06.520Z,16.88
2023-05-15T10:02:05.692Z,16.88
2023-05-15T10:03:05.899Z,16.88
2023-05-15T10:04:06.118Z,16.88
2023-05-15T10:05:06.374Z,16.88
2023-05-15T10:06:06.438Z,16.88
2023-05-15T10:07:05.524Z,16.88
2023-05-15T10:08:05.768Z,22.50
2023-05-15T10:09:05.954Z,22.50
2023-05-15T10:10:06.110Z,22.50
2023-05-15T10:11:06.563Z,22.50
2023-05-15T10:12:05.449Z,28.12
2023-05-15T10:13:06.699Z,28.12
2023-05-15T10:14:05.837Z,28.12
2023-05-15T10:15:06.035Z,28.12
2023-05-15T10:16:06.307Z,33.75
2023-05-15T10:17:10.653Z,33.75
2023-05-15T10:18:05.647Z,39.38
2023-05-15T10:19:05.759Z,39.38
2023-05-15T10:20:05.912Z,39.38
2023-05-15T10:21:06.111Z,39.38
2023-05-15T10:22:06.322Z,39.38
2023-05-15T10:23:08.213Z,39.38
2023-05-15T10:24:05.642Z,39.38
2023-05-15T10:25:05.758Z,39.38
2023-05-15T10:26:05.967Z,45.00
2023-05-15T10:27:06.122Z,56.25
2023-05-15T10:28:05.300Z,45.00
2023-05-15T10:29:06.387Z,45.00
2023-05-15T10:30:05.643Z,50.62
2023-05-15T10:31:05.881Z,45.00
2023-05-15T10:32:05.952Z,56.25
2023-05-15T10:33:06.217Z,50.62
2023-05-15T10:34:05.307Z,39.38
2023-05-15T10:35:06.398Z,39.38
2023-05-15T10:36:05.725Z,39.38
2023-05-15T10:37:05.793Z,39.38
2023-05-15T10:38:05.917Z,50.62
2023-05-15T10:39:06.137Z,39.38
2023-05-15T10:40:05.241Z,39.38
2023-05-15T10:41:16.588Z,39.38
2023-05-15T10:42:06.577Z,39.38
2023-05-15T10:43:05.728Z,39.38
2023-05-15T10:44:05.918Z,45.00
2023-05-15T10:45:05.013Z,45.00
2023-05-15T10:46:05.264Z,45.00
2023-05-15T10:47:06.490Z,50.62
2023-05-15T10:48:05.576Z,50.62
2023-05-15T10:49:05.730Z,39.38
2023-05-15T10:50:05.854Z,45.00
2023-05-15T10:51:04.987Z,45.00
2023-05-15T10:52:05.233Z,45.00
2023-05-15T10:53:06.901Z,45.00
2023-05-15T10:54:05.521Z,33.75
2023-05-15T10:55:05.708Z,39.38
2023-05-15T10:56:05.929Z,39.38
2023-05-15T10:57:04.968Z,33.75
2023-05-15T10:58:05.134Z,33.75
2023-05-15T10:59:06.370Z,39.38
2023-05-15T11:00:05.528Z,39.38
2023-05-15T11:01:05.739Z,39.38
2023-05-15T11:02:04.843Z,39.38
2023-05-15T11:03:05.128Z,39.38
2023-05-15T11:04:05.283Z,39.38
2023-05-15T11:05:06.473Z,39.38
2023-05-15T11:06:06.607Z,39.38
2023-05-15T11:07:05.742Z,39.38
2023-05-15T11:08:04.875Z,39.38
2023-05-15T11:09:05.066Z,39.38
2023-05-15T11:10:06.227Z,39.38
2023-05-15T11:11:06.971Z,39.38
2023-05-15T11:12:05.540Z,39.38
2023-05-15T11:13:04.629Z,39.38
2023-05-15T11:14:04.831Z,39.38
2023-05-15T11:15:04.970Z,39.38
2023-05-15T11:16:06.085Z,39.38
2023-05-15T11:17:08.171Z,39.38
2023-05-15T11:18:06.446Z,39.38
2023-05-15T11:19:04.634Z,39.38
2023-05-15T11:20:04.737Z,39.38
2023-05-15T11:21:04.895Z,45.00
2023-05-15T11:22:05.999Z,45.00
2023-05-15T11:23:06.835Z,45.00
2023-05-15T11:24:05.361Z,39.38
2023-05-15T11:25:04.474Z,45.00
2023-05-15T11:26:04.614Z,39.38
2023-05-15T11:27:04.819Z,45.00
2023-05-15T11:28:04.973Z,45.00
2023-05-15T11:29:06.834Z,45.00
2023-05-15T11:30:05.318Z,45.00
2023-05-15T11:31:04.488Z,50.62
2023-05-15T11:32:05.559Z,50.62
2023-05-15T11:33:05.813Z,50.62
2023-05-15T11:34:05.824Z,50.62
2023-05-15T11:35:06.357Z,50.62
2023-05-15T11:36:05.215Z,50.62
2023-05-15T11:37:04.322Z,50.62
2023-05-15T11:38:04.523Z,50.62
2023-05-15T11:39:04.663Z,50.62
2023-05-15T11:40:04.817Z,50.62
2023-05-15T11:41:06.926Z,50.62
2023-05-15T11:42:05.093Z,50.62
2023-05-15T11:43:05.258Z,50.62
2023-05-15T11:44:04.369Z,50.62
2023-05-15T11:45:04.532Z,50.62
2023-05-15T11:46:04.756Z,50.62
2023-05-15T11:47:08.288Z,50.62
2023-05-15T11:48:05.011Z,50.62
2023-05-15T11:49:05.133Z,56.25
2023-05-15T11:50:04.269Z,56.25
2023-05-15T11:51:05.379Z,50.62
2023-05-15T11:52:04.564Z,50.62
2023-05-15T11:53:06.488Z,50.62
2023-05-15T11:54:06.318Z,50.62
2023-05-15T11:55:05.019Z,50.62
2023-05-15T11:56:04.097Z,50.62
2023-05-15T11:57:04.310Z,56.25
2023-05-15T11:58:04.449Z,50.62
2023-05-15T11:59:06.526Z,56.25
2023-05-15T12:00:04.692Z,56.25
2023-05-15T12:01:04.856Z,50.62
2023-05-15T12:02:05.000Z,50.62
2023-05-15T12:03:04.164Z,39.38
2023-05-15T12:04:04.322Z,56.25
2023-05-15T12:05:06.518Z,56.25
2023-05-15T12:06:04.491Z,50.62
2023-05-15T12:07:05.648Z,56.25
2023-05-15T12:08:04.797Z,56.25
2023-05-15T12:09:04.949Z,45.00
2023-05-15T12:10:04.042Z,39.38
2023-05-15T12:11:04.211Z,56.25
2023-05-15T12:12:05.259Z,56.25
2023-05-15T12:13:05.384Z,56.25
2023-05-15T12:14:05.533Z,56.25
2023-05-15T12:15:04.763Z,56.25
2023-05-15T12:16:03.902Z,56.25
2023-05-15T12:17:03.981Z,56.25
2023-05-15T12:18:04.187Z,56.25
2023-05-15T12:19:04.286Z,56.25
2023-05-15T12:20:04.380Z,56.25
2023-05-15T12:21:04.540Z,56.25
2023-05-15T12:22:06.417Z,56.25
2023-05-15T12:23:03.758Z,56.25
2023-05-15T12:24:08.172Z,56.25
2023-05-15T12:25:03.987Z,56.25
2023-05-15T12:26:04.128Z,56.25
2023-05-15T12:27:04.276Z,56.25
2023-05-15T12:28:06.415Z,56.25
2023-05-15T12:29:05.537Z,56.25
2023-05-15T12:30:03.667Z,56.25
2023-05-15T12:31:03.851Z,56.25
2023-05-15T12:32:03.996Z,61.88
2023-05-15T12:33:04.167Z,56.25
2023-05-15T12:34:04.282Z,56.25
2023-05-15T12:35:05.342Z,61.88
2023-05-15T12:36:05.469Z,56.25
2023-05-15T12:37:03.604Z,56.25
2023-05-15T12:38:03.746Z,56.25
2023-05-15T12:39:03.854Z,56.25
2023-05-15T12:40:04.026Z,56.25
2023-05-15T12:41:04.116Z,61.88
2023-05-15T12:42:04.306Z,61.88
2023-05-15T12:43:04.462Z,61.88
2023-05-15T12:44:03.511Z,61.88
2023-05-15T12:45:04.635Z,61.88
2023-05-15T12:46:03.877Z,61.88
2023-05-15T12:47:04.947Z,61.88
2023-05-15T12:48:05.194Z,61.88
2023-05-15T12:49:04.214Z,61.88
2023-05-15T12:50:04.337Z,61.88
2023-05-15T12:51:04.349Z,56.25
2023-05-15T12:52:03.578Z,61.88
2023-05-15T12:53:03.649Z,61.88
2023-05-15T12:54:03.836Z,56.25
2023-05-15T12:55:03.908Z,56.25
2023-05-15T12:56:05.012Z,56.25
2023-05-15T12:57:04.203Z,56.25
2023-05-15T12:58:03.338Z,56.25
2023-05-15T12:59:03.407Z,56.25
2023-05-15T13:00:03.518Z,56.25
2023-05-15T13:01:03.744Z,56.25
2023-05-15T13:02:03.784Z,56.25
2023-05-15T13:03:04.137Z,56.25
2023-05-15T13:04:04.086Z,56.25
2023-05-15T13:05:04.195Z,56.25
2023-05-15T13:06:04.204Z,56.25
2023-05-15T13:07:04.335Z,61.88
2023-05-15T13:08:03.470Z,61.88